aviador You're here:

KMAO Decoded Metar

MARION in SC, USA
Report Time2017-07-22 18:35:00
UTC Time2017-07-22 18:50:12
Flight Rules vfr VFR
Wind240° at 09 kt
W.Decomp.*RWY 22: 8.1 kt HW 3.9 kt RCW
W.Rank240° ranks 15
Current wind is above 240° avg. (7.4)
Visibility9999 m
Phenomena:N/A
Clouds:Scattered 037 Hf
Expected CloudBase > 4,000 ft AGL from Temp-Dew spread
CeilingNone
Temp33°C (ISA +18)
Dew Point23°C (56% RH)
Heat Index38.1°C
QNH1015 hPa
Density Alt2,464 ft
Elevation92 ft
Report Wrong Elevation
Raw Report
METAR KMAO 221835Z AUTO 24009KT 210V270 7SM SCT037 33/23 A2997 RMK
AO2=

Extra information for KMAO:More info

Metar Taf Metar & Taf Last 4 Metars F.Rules Stats Wind Profile Meteogram Temp Stats Airport Information Weather charts Add Link Nearby VenuesMetar ALERT Operation Metar Decoded Social comments

AIRNAV info for KMAO